createdAt,value
2023-01-11T00:01:25.305Z,19.44
2023-01-11T00:03:52.917Z,19.23
2023-01-11T00:06:20.573Z,19.37
2023-01-11T00:08:49.552Z,19.18
2023-01-11T00:11:17.364Z,19.43
2023-01-11T00:13:45.805Z,19.27
2023-01-11T00:16:13.323Z,19.31
2023-01-11T00:18:40.829Z,19.41
2023-01-11T00:21:08.936Z,19.29
2023-01-11T00:23:37.496Z,19.29
2023-01-11T00:26:08.880Z,19.30
2023-01-11T00:28:36.537Z,19.34
2023-01-11T00:31:04.553Z,19.33
2023-01-11T00:33:32.267Z,19.40
2023-01-11T00:35:59.860Z,19.60
2023-01-11T00:38:27.614Z,19.64
2023-01-11T00:40:55.684Z,19.53
2023-01-11T00:43:24.768Z,19.39
2023-01-11T00:45:52.796Z,19.37
2023-01-11T00:48:20.399Z,19.38
2023-01-11T00:50:47.879Z,19.60
2023-01-11T00:53:15.424Z,19.43
2023-01-11T00:55:43.063Z,19.38
2023-01-11T00:58:10.672Z,19.63
2023-01-11T01:00:39.647Z,19.38
2023-01-11T01:03:13.420Z,19.52
2023-01-11T01:05:44.502Z,19.45
2023-01-11T01:08:12.908Z,19.32
2023-01-11T01:10:43.206Z,19.38
2023-01-11T01:13:20.100Z,19.38
2023-01-11T01:15:50.944Z,19.51
2023-01-11T01:18:20.707Z,19.38
2023-01-11T01:20:50.765Z,19.53
2023-01-11T01:23:18.766Z,19.43
2023-01-11T01:25:46.276Z,19.47
2023-01-11T01:28:13.820Z,19.41
2023-01-11T01:30:41.360Z,19.42
2023-01-11T01:33:10.291Z,19.50
2023-01-11T01:35:38.276Z,19.53
2023-01-11T01:38:06.256Z,19.46
2023-01-11T01:40:33.798Z,19.63
2023-01-11T01:43:01.346Z,19.50
2023-01-11T01:45:29.059Z,19.57
2023-01-11T01:48:00.312Z,18.81
2023-01-11T01:50:33.851Z,18.88
2023-01-11T01:53:06.159Z,19.46
2023-01-11T01:55:39.213Z,19.19
2023-01-11T01:58:12.012Z,19.27
2023-01-11T02:00:42.413Z,19.54
2023-01-11T02:03:11.215Z,19.62
2023-01-11T02:05:41.478Z,19.30
2023-01-11T02:08:17.409Z,19.34
2023-01-11T02:10:45.226Z,19.45
2023-01-11T02:13:13.251Z,19.48
2023-01-11T02:15:41.217Z,19.61
2023-01-11T02:18:12.504Z,19.48
2023-01-11T02:21:01.865Z,19.43
2023-01-11T02:23:52.558Z,19.59
2023-01-11T02:26:47.760Z,19.43
2023-01-11T02:29:30.192Z,19.34
2023-01-11T02:32:10.317Z,19.37
2023-01-11T02:34:45.092Z,19.61
2023-01-11T02:37:26.074Z,19.65
2023-01-11T02:40:02.987Z,19.30
2023-01-11T02:42:38.963Z,19.49
2023-01-11T02:45:17.609Z,19.32
2023-01-11T02:47:51.854Z,19.20
2023-01-11T02:50:28.264Z,19.36
2023-01-11T02:53:00.720Z,19.25
2023-01-11T02:55:32.655Z,19.30
2023-01-11T02:58:02.676Z,19.34
2023-01-11T03:00:32.192Z,19.31
2023-01-11T03:03:07.709Z,20.06
2023-01-11T03:05:38.583Z,20.21
2023-01-11T03:08:21.961Z,19.70
2023-01-11T03:11:01.275Z,19.60
2023-01-11T03:13:42.025Z,19.35
2023-01-11T03:16:24.897Z,19.35
2023-01-11T03:19:12.600Z,20.20
2023-01-11T03:21:51.118Z,20.42
2023-01-11T03:24:29.402Z,20.21
2023-01-11T03:27:09.207Z,19.85
2023-01-11T03:29:44.005Z,19.88
2023-01-11T03:32:22.294Z,19.87
2023-01-11T03:35:01.760Z,19.57
2023-01-11T03:37:36.220Z,19.72
2023-01-11T03:40:09.675Z,19.72
2023-01-11T03:42:41.202Z,19.57
2023-01-11T03:45:10.383Z,19.54
2023-01-11T03:47:39.540Z,19.82
2023-01-11T03:50:12.209Z,19.65
2023-01-11T03:52:42.700Z,19.58
2023-01-11T03:55:14.730Z,19.41
2023-01-11T03:57:46.741Z,19.51
2023-01-11T04:00:14.851Z,19.63
2023-01-11T04:02:43.767Z,19.90
2023-01-11T04:05:12.004Z,19.89
2023-01-11T04:07:39.520Z,19.74
2023-01-11T04:10:08.571Z,19.64
2023-01-11T04:12:36.066Z,19.71
2023-01-11T04:15:05.052Z,19.67
2023-01-11T04:17:32.749Z,19.71
2023-01-11T04:20:01.729Z,19.57
2023-01-11T04:22:29.257Z,19.76
2023-01-11T04:24:56.659Z,19.76
2023-01-11T04:27:24.174Z,19.69
2023-01-11T04:29:51.717Z,20.02
2023-01-11T04:32:19.274Z,19.92
2023-01-11T04:34:46.784Z,19.70
2023-01-11T04:37:15.817Z,19.97
2023-01-11T04:39:43.461Z,20.01
2023-01-11T04:42:12.438Z,19.66
2023-01-11T04:44:40.226Z,19.73
2023-01-11T04:47:07.851Z,19.80
2023-01-11T04:49:35.394Z,19.93
2023-01-11T04:52:02.921Z,20.16
2023-01-11T04:54:31.803Z,20.21
2023-01-11T04:56:59.588Z,20.50
2023-01-11T04:59:27.953Z,20.13
2023-01-11T05:01:55.473Z,19.85
2023-01-11T05:04:23.209Z,19.93
2023-01-11T05:06:50.816Z,20.05
2023-01-11T05:09:19.791Z,20.30
2023-01-11T05:11:48.882Z,20.26
2023-01-11T05:14:16.800Z,20.26
2023-01-11T05:16:44.508Z,20.08
2023-01-11T05:19:12.338Z,20.44
2023-01-11T05:21:41.184Z,20.37
2023-01-11T05:24:12.191Z,20.32
2023-01-11T05:26:41.930Z,19.89
2023-01-11T05:29:11.782Z,19.91
2023-01-11T05:31:40.819Z,20.05
2023-01-11T05:34:10.043Z,20.09
2023-01-11T05:36:37.484Z,20.36
2023-01-11T05:39:05.614Z,20.21
2023-01-11T05:41:33.654Z,19.90
2023-01-11T05:44:01.358Z,19.98
2023-01-11T05:46:31.068Z,19.90
2023-01-11T05:48:58.544Z,19.88
2023-01-11T05:51:26.796Z,19.91
2023-01-11T05:53:54.532Z,20.21
2023-01-11T05:56:22.055Z,20.20
2023-01-11T05:58:51.193Z,20.09
2023-01-11T06:01:21.260Z,20.15
2023-01-11T06:03:51.034Z,19.95
2023-01-11T06:06:19.226Z,20.09
2023-01-11T06:08:47.469Z,19.91
2023-01-11T06:11:15.292Z,20.17
2023-01-11T06:13:42.785Z,20.14
2023-01-11T06:16:12.679Z,20.24
2023-01-11T06:18:42.731Z,20.39
2023-01-11T06:21:12.430Z,20.06
2023-01-11T06:23:40.441Z,20.07
2023-01-11T06:26:10.352Z,20.30
2023-01-11T06:28:38.834Z,20.36
2023-01-11T06:31:06.976Z,20.34
2023-01-11T06:33:37.695Z,20.13
2023-01-11T06:36:06.980Z,20.22
2023-01-11T06:38:37.165Z,19.95
2023-01-11T06:41:06.846Z,19.87
2023-01-11T06:43:34.862Z,20.12
2023-01-11T06:46:02.517Z,19.73
2023-01-11T06:48:30.735Z,19.70
2023-01-11T06:50:58.926Z,19.72
2023-01-11T06:53:29.063Z,19.68
2023-01-11T06:55:58.945Z,20.48
2023-01-11T06:58:27.068Z,20.61
2023-01-11T07:00:57.045Z,20.18
2023-01-11T07:03:25.269Z,20.32
2023-01-11T07:05:53.918Z,19.80
2023-01-11T07:08:21.994Z,20.03
2023-01-11T07:10:50.338Z,19.83
2023-01-11T07:13:20.902Z,20.08
2023-01-11T07:15:49.949Z,20.03
2023-01-11T07:18:18.911Z,19.75
2023-01-11T07:20:47.240Z,19.70
2023-01-11T07:23:14.971Z,19.66
2023-01-11T07:25:42.623Z,19.63
2023-01-11T07:28:10.618Z,19.99
2023-01-11T07:30:56.251Z,19.79
2023-01-11T07:33:26.236Z,19.65
2023-01-11T07:35:54.285Z,19.68
2023-01-11T07:38:22.150Z,19.73
2023-01-11T07:40:49.823Z,19.71
2023-01-11T07:43:17.467Z,19.94
2023-01-11T07:45:48.579Z,19.69
2023-01-11T07:48:17.264Z,20.08
2023-01-11T07:50:45.495Z,19.90
2023-01-11T07:53:14.185Z,19.98
2023-01-11T07:55:41.999Z,20.05
2023-01-11T07:58:11.703Z,20.01
2023-01-11T08:00:40.194Z,19.94
2023-01-11T08:03:09.626Z,19.92
2023-01-11T08:05:37.340Z,19.99
2023-01-11T08:08:05.675Z,19.98
2023-01-11T08:10:33.807Z,19.90
2023-01-11T08:13:01.786Z,19.85
2023-01-11T08:15:29.913Z,19.89
2023-01-11T08:17:58.282Z,20.08
2023-01-11T08:20:27.254Z,20.11
2023-01-11T08:22:55.752Z,20.29
2023-01-11T08:25:23.460Z,20.10
2023-01-11T08:27:51.499Z,20.13
2023-01-11T08:30:20.121Z,20.12
2023-01-11T08:32:48.670Z,20.25
2023-01-11T08:35:17.085Z,20.15
2023-01-11T08:37:46.976Z,20.17
2023-01-11T08:40:15.181Z,20.21
2023-01-11T08:42:43.517Z,20.35
2023-01-11T08:45:12.110Z,20.21
2023-01-11T08:47:40.328Z,20.13
2023-01-11T08:50:09.779Z,20.23
2023-01-11T08:52:37.273Z,20.27
2023-01-11T08:55:07.289Z,20.60
2023-01-11T08:57:35.644Z,20.48
2023-01-11T09:00:04.323Z,20.31
2023-01-11T09:02:31.869Z,20.22
2023-01-11T09:04:59.398Z,20.60
2023-01-11T09:07:26.827Z,20.24
2023-01-11T09:09:54.440Z,20.28
2023-01-11T09:12:23.519Z,20.30
2023-01-11T09:14:51.304Z,20.48
2023-01-11T09:17:19.077Z,20.12
2023-01-11T09:19:47.117Z,20.32
2023-01-11T09:22:14.673Z,19.91
2023-01-11T09:24:42.253Z,20.06
2023-01-11T09:27:09.982Z,20.20
2023-01-11T09:29:39.185Z,20.27
2023-01-11T09:32:07.059Z,20.30
2023-01-11T09:34:34.838Z,20.12
2023-01-11T09:37:03.644Z,20.09
2023-01-11T09:39:31.200Z,20.22
2023-01-11T09:42:15.291Z,20.10
2023-01-11T09:44:50.487Z,20.04
2023-01-11T09:47:28.519Z,20.13
2023-01-11T09:50:03.270Z,20.10
2023-01-11T09:52:34.921Z,20.11
2023-01-11T09:55:02.584Z,20.24
2023-01-11T09:57:45.640Z,20.28
2023-01-11T10:00:23.652Z,20.15
2023-01-11T10:03:16.710Z,20.64
2023-01-11T10:06:02.028Z,20.24
2023-01-11T10:18:31.012Z,20.48
2023-01-11T10:18:37.854Z,20.50
2023-01-11T10:20:51.447Z,20.36
2023-01-11T10:23:24.548Z,20.35
2023-01-11T10:25:55.815Z,20.46
2023-01-11T10:28:27.887Z,20.47
2023-01-11T10:30:56.995Z,20.66
2023-01-11T10:33:35.181Z,20.36
2023-01-11T10:36:06.873Z,20.66
2023-01-11T10:38:38.202Z,20.43
2023-01-11T10:41:13.432Z,20.75
2023-01-11T10:43:44.419Z,20.42
2023-01-11T10:46:15.652Z,20.49
2023-01-11T10:48:46.198Z,20.45
2023-01-11T10:51:24.861Z,20.35
2023-01-11T10:54:01.163Z,20.53
2023-01-11T10:57:02.967Z,20.45
2023-01-11T11:00:04.390Z,20.62
2023-01-11T11:02:59.903Z,20.56
2023-01-11T11:05:37.611Z,19.97
2023-01-11T11:08:13.211Z,20.43
2023-01-11T11:10:49.852Z,20.61
2023-01-11T11:13:24.071Z,20.58
2023-01-11T11:15:57.109Z,20.32
2023-01-11T11:18:25.024Z,20.53
2023-01-11T11:20:53.942Z,20.43
2023-01-11T11:23:25.390Z,20.60
2023-01-11T11:25:58.538Z,20.45
2023-01-11T11:28:28.182Z,20.48
2023-01-11T11:30:59.330Z,20.63
2023-01-11T11:33:32.967Z,20.37
2023-01-11T11:36:04.048Z,20.49
2023-01-11T11:38:33.386Z,20.44
2023-01-11T11:41:06.998Z,20.39
2023-01-11T11:43:35.988Z,20.71
2023-01-11T11:46:05.344Z,20.51
2023-01-11T11:48:34.844Z,20.55
2023-01-11T11:51:05.432Z,20.27
2023-01-11T11:53:39.189Z,20.49
2023-01-11T11:56:14.703Z,20.85
2023-01-11T11:58:44.799Z,20.75
2023-01-11T12:01:28.835Z,20.95
2023-01-11T12:04:01.508Z,20.60
2023-01-11T12:06:31.819Z,20.61
2023-01-11T12:09:02.670Z,20.60
2023-01-11T12:11:33.775Z,20.54
2023-01-11T12:14:05.270Z,20.49
2023-01-11T12:16:39.904Z,20.40
2023-01-11T12:19:27.342Z,20.45
2023-01-11T12:22:11.423Z,20.41
2023-01-11T12:24:39.880Z,20.39
2023-01-11T12:27:17.936Z,20.51
2023-01-11T12:30:03.787Z,20.85
2023-01-11T12:32:52.022Z,20.64
2023-01-11T12:35:34.660Z,20.42
2023-01-11T12:38:26.456Z,20.49
2023-01-11T12:41:08.641Z,20.43
2023-01-11T12:43:53.082Z,20.42
2023-01-11T12:46:30.003Z,20.37
2023-01-11T12:49:15.928Z,20.03
2023-01-11T12:52:01.350Z,20.21
2023-01-11T12:54:47.933Z,20.15
2023-01-11T12:57:26.943Z,20.40
2023-01-11T13:00:17.727Z,20.11
2023-01-11T13:03:08.761Z,19.98
2023-01-11T13:05:46.285Z,20.05
2023-01-11T13:08:22.045Z,20.36
2023-01-11T13:11:01.212Z,20.05
2023-01-11T13:13:36.698Z,20.00
2023-01-11T13:16:13.001Z,19.96
2023-01-11T13:18:47.620Z,20.02
2023-01-11T13:21:26.534Z,20.12
2023-01-11T13:23:57.135Z,20.24
2023-01-11T13:26:31.099Z,20.17
2023-01-11T13:29:01.849Z,20.13
2023-01-11T13:31:30.388Z,20.26
2023-01-11T13:34:02.843Z,20.22
2023-01-11T13:36:38.800Z,20.15
2023-01-11T13:39:14.327Z,20.55
2023-01-11T13:41:47.736Z,20.79
2023-01-11T13:44:21.556Z,20.78
2023-01-11T13:47:02.963Z,20.82
2023-01-11T13:49:44.614Z,20.54
2023-01-11T13:52:14.963Z,20.55
2023-01-11T13:54:49.763Z,20.62
2023-01-11T13:57:24.885Z,20.40
2023-01-11T13:59:57.836Z,20.15
2023-01-11T14:02:38.060Z,20.38
2023-01-11T14:05:14.828Z,20.30
2023-01-11T14:07:54.452Z,20.49
2023-01-11T14:10:33.523Z,20.95
2023-01-11T14:13:16.798Z,20.78
2023-01-11T14:15:54.763Z,20.63
2023-01-11T14:18:33.658Z,20.38
2023-01-11T14:21:07.984Z,20.26
2023-01-11T14:23:45.135Z,20.32
2023-01-11T14:26:35.537Z,20.29
2023-01-11T14:29:43.516Z,20.34
2023-01-11T14:32:35.210Z,20.21
2023-01-11T14:35:44.963Z,20.29
2023-01-11T14:38:33.880Z,20.65
2023-01-11T14:41:27.845Z,20.45
2023-01-11T14:44:13.631Z,20.64
2023-01-11T14:47:24.541Z,20.49
2023-01-11T14:50:06.259Z,20.71
2023-01-11T14:52:40.786Z,20.53
2023-01-11T14:55:16.611Z,20.57
2023-01-11T14:57:59.420Z,20.46
2023-01-11T15:01:11.149Z,20.48
2023-01-11T15:03:58.455Z,20.55
2023-01-11T15:06:31.456Z,20.36
2023-01-11T15:08:58.912Z,20.31
2023-01-11T15:11:33.024Z,18.23
2023-01-11T15:14:04.532Z,20.25
2023-01-11T15:16:34.475Z,20.18
2023-01-11T15:19:06.237Z,19.98
2023-01-11T15:21:40.876Z,20.10
2023-01-11T15:24:22.075Z,19.90
2023-01-11T15:26:51.203Z,20.15
2023-01-11T15:29:23.625Z,20.32
2023-01-11T15:32:15.626Z,19.91
2023-01-11T15:34:46.817Z,20.06
2023-01-11T15:37:42.698Z,20.29
2023-01-11T15:40:18.602Z,20.16
2023-01-11T15:43:21.664Z,20.06
2023-01-11T15:46:29.292Z,20.47
2023-01-11T15:49:41.357Z,20.02
2023-01-11T15:52:40.951Z,20.35
2023-01-11T15:55:22.811Z,20.26
2023-01-11T15:58:25.860Z,20.37
2023-01-11T16:01:20.695Z,20.63
2023-01-11T16:04:02.752Z,20.13
2023-01-11T16:06:41.099Z,20.21
2023-01-11T16:09:40.863Z,20.31
2023-01-11T16:12:28.942Z,20.34
2023-01-11T16:15:30.001Z,20.25
2023-01-11T16:18:05.778Z,20.35
2023-01-11T16:20:33.642Z,20.50
2023-01-11T16:23:04.562Z,20.54
2023-01-11T16:25:39.010Z,20.56
2023-01-11T16:28:08.775Z,20.46
2023-01-11T16:30:36.416Z,20.45
2023-01-11T16:33:20.490Z,20.58
2023-01-11T16:35:48.250Z,20.49
2023-01-11T16:38:20.765Z,20.52
2023-01-11T16:40:53.369Z,20.64
2023-01-11T16:43:25.352Z,20.47
2023-01-11T16:45:53.997Z,20.45
2023-01-11T16:48:23.565Z,20.54
2023-01-11T16:51:00.596Z,20.58
2023-01-11T16:53:29.497Z,20.41
2023-01-11T16:56:02.182Z,20.52
2023-01-11T16:58:31.298Z,20.50
2023-01-11T17:01:01.022Z,20.56
2023-01-11T17:03:30.312Z,20.41
2023-01-11T17:06:16.848Z,20.50
2023-01-11T17:08:47.451Z,20.62
2023-01-11T17:11:24.110Z,20.59
2023-01-11T17:14:09.497Z,20.49
2023-01-11T17:16:42.126Z,20.51
2023-01-11T17:19:15.171Z,20.38
2023-01-11T17:21:48.654Z,20.57
2023-01-11T17:24:17.400Z,20.74
2023-01-11T17:26:48.941Z,20.62
2023-01-11T17:29:23.633Z,20.58
2023-01-11T17:31:51.442Z,20.63
2023-01-11T17:34:23.880Z,20.54
2023-01-11T17:36:51.853Z,20.64
2023-01-11T17:39:23.402Z,20.50
2023-01-11T17:41:53.141Z,20.51
2023-01-11T17:44:23.566Z,20.59
2023-01-11T17:46:51.287Z,20.33
2023-01-11T17:49:22.829Z,20.55
2023-01-11T17:51:50.664Z,20.62
2023-01-11T17:54:20.897Z,20.70
2023-01-11T17:56:56.047Z,20.49
2023-01-11T17:59:26.774Z,20.32
2023-01-11T18:01:56.996Z,20.43
2023-01-11T18:04:26.803Z,20.24
2023-01-11T18:06:56.646Z,20.50
2023-01-11T18:09:27.413Z,20.43
2023-01-11T18:12:08.479Z,20.32
2023-01-11T18:14:41.020Z,20.30
2023-01-11T18:17:36.413Z,20.50
2023-01-11T18:20:30.970Z,20.63
2023-01-11T18:23:03.147Z,20.60
2023-01-11T18:25:35.690Z,20.62
2023-01-11T18:28:38.588Z,20.73
2023-01-11T18:31:06.833Z,20.65
2023-01-11T18:33:35.019Z,20.61
2023-01-11T18:36:04.568Z,20.67
2023-01-11T18:38:33.526Z,20.66
2023-01-11T18:41:06.447Z,20.78
2023-01-11T18:43:34.924Z,20.66
2023-01-11T18:46:04.496Z,20.59
2023-01-11T18:48:31.997Z,20.60
2023-01-11T18:50:59.556Z,20.51
2023-01-11T18:53:27.127Z,20.58
2023-01-11T18:55:54.884Z,20.63
2023-01-11T18:58:22.372Z,20.46
2023-01-11T19:00:50.889Z,20.59
2023-01-11T19:03:19.928Z,20.75
2023-01-11T19:05:47.497Z,20.59
2023-01-11T19:08:15.199Z,20.83
2023-01-11T19:10:42.896Z,20.79
2023-01-11T19:13:11.059Z,20.51
2023-01-11T19:15:38.709Z,20.82
2023-01-11T19:18:06.491Z,20.77
2023-01-11T19:20:37.170Z,20.84
2023-01-11T19:23:04.717Z,20.91
2023-01-11T19:25:32.392Z,20.70
2023-01-11T19:28:01.960Z,20.76
2023-01-11T19:30:29.683Z,20.88
2023-01-11T19:32:57.581Z,20.72
2023-01-11T19:35:25.136Z,20.86
2023-01-11T19:40:21.565Z,20.80
2023-01-11T19:42:49.201Z,20.72
2023-01-11T19:45:17.090Z,20.77
2023-01-11T19:47:44.674Z,20.66
2023-01-11T19:50:12.143Z,21.02
2023-01-11T19:52:39.839Z,20.76
2023-01-11T19:55:09.937Z,20.63
2023-01-11T19:57:37.476Z,20.48
2023-01-11T20:00:05.625Z,20.50
2023-01-11T20:02:39.713Z,20.54
2023-01-11T20:05:08.200Z,20.53
2023-01-11T20:07:35.647Z,20.59
2023-01-11T20:10:03.399Z,20.59
2023-01-11T20:12:32.475Z,20.73
2023-01-11T20:15:00.142Z,20.59
2023-01-11T20:17:27.851Z,20.61
2023-01-11T20:19:55.947Z,20.58
2023-01-11T20:22:24.791Z,20.79
2023-01-11T20:24:52.339Z,20.57
2023-01-11T20:27:20.312Z,20.60
2023-01-11T20:29:49.260Z,20.71
2023-01-11T20:32:39.262Z,20.63
2023-01-11T20:35:06.014Z,20.64
2023-01-11T20:37:33.555Z,20.79
2023-01-11T20:40:01.058Z,20.68
2023-01-11T20:42:29.023Z,20.89
2023-01-11T20:44:58.253Z,20.60
2023-01-11T20:47:25.702Z,20.50
2023-01-11T20:49:53.274Z,20.81
2023-01-11T20:52:20.805Z,20.77
2023-01-11T20:54:48.319Z,20.71
2023-01-11T20:57:15.902Z,20.64
2023-01-11T20:59:43.487Z,20.49
2023-01-11T21:02:12.561Z,20.58
2023-01-11T21:04:40.273Z,20.45
2023-01-11T21:07:07.944Z,20.60
2023-01-11T21:09:35.505Z,20.51
2023-01-11T21:12:03.031Z,20.69
2023-01-11T21:14:31.009Z,20.59
2023-01-11T21:16:58.472Z,20.64
2023-01-11T21:19:27.420Z,20.70
2023-01-11T21:21:54.831Z,20.61
2023-01-11T21:24:22.288Z,20.74
2023-01-11T21:26:49.913Z,20.91
2023-01-11T21:29:17.842Z,20.81
2023-01-11T21:31:45.404Z,20.83
2023-01-11T21:34:13.908Z,20.80
2023-01-11T21:36:43.528Z,20.81
2023-01-11T21:39:12.255Z,20.82
2023-01-11T21:41:39.689Z,21.17
2023-01-11T21:44:07.984Z,20.93
2023-01-11T21:46:35.861Z,20.97
2023-01-11T21:49:03.684Z,21.08
2023-01-11T21:51:31.271Z,21.06
2023-01-11T21:54:00.296Z,20.77
2023-01-11T21:56:27.775Z,20.69
2023-01-11T21:58:55.214Z,20.86
2023-01-11T22:01:22.710Z,20.86
2023-01-11T22:03:50.519Z,20.62
2023-01-11T22:06:18.283Z,20.77
2023-01-11T22:08:46.308Z,20.61
2023-01-11T22:11:16.786Z,20.68
2023-01-11T22:13:44.625Z,20.50
2023-01-11T22:16:14.566Z,20.43
2023-01-11T22:18:42.601Z,20.42
2023-01-11T22:21:11.966Z,20.48
2023-01-11T22:23:40.550Z,20.62
2023-01-11T22:26:10.218Z,20.43
2023-01-11T22:28:39.262Z,20.49
2023-01-11T22:31:07.007Z,20.64
2023-01-11T22:33:36.872Z,20.69
2023-01-11T22:36:04.892Z,20.71
2023-01-11T22:38:33.002Z,20.80
2023-01-11T22:41:00.461Z,20.69
2023-01-11T22:43:28.590Z,20.73
2023-01-11T22:45:59.669Z,20.54
2023-01-11T22:48:27.903Z,20.79
2023-01-11T22:50:55.885Z,20.81
2023-01-11T22:53:23.465Z,20.61
2023-01-11T22:55:50.931Z,20.51
2023-01-11T22:58:18.359Z,20.56
2023-01-11T23:00:45.819Z,20.60
2023-01-11T23:03:15.649Z,20.69
2023-01-11T23:05:45.000Z,20.49
2023-01-11T23:08:12.747Z,20.47
2023-01-11T23:10:41.400Z,20.52
2023-01-11T23:13:09.765Z,20.50
2023-01-11T23:15:38.730Z,20.81
2023-01-11T23:18:06.578Z,20.68
2023-01-11T23:20:35.820Z,20.69
2023-01-11T23:23:03.314Z,20.59
2023-01-11T23:25:30.766Z,20.57
2023-01-11T23:27:58.221Z,20.85
2023-01-11T23:30:26.127Z,20.85
2023-01-11T23:32:53.617Z,21.13
2023-01-11T23:35:21.063Z,20.69
2023-01-11T23:37:49.922Z,20.88
2023-01-11T23:40:17.609Z,20.86
2023-01-11T23:42:45.053Z,20.80
2023-01-11T23:45:12.462Z,20.84
2023-01-11T23:47:39.906Z,20.84
2023-01-11T23:50:08.299Z,20.84
2023-01-11T23:52:35.775Z,21.18
2023-01-11T23:55:06.185Z,20.89
2023-01-11T23:57:33.627Z,20.85
